sensor_id;sensor_type;location;lat;lon;timestamp;P1;durP1;ratioP1;P2;durP2;ratioP2
68985;SDS011;56035;37.534;-122.308;2024-03-07T00:00:48;2.00;;;0.52;;
68985;SDS011;56035;37.534;-122.308;2024-03-07T00:03:19;2.57;;;0.73;;
68985;SDS011;56035;37.534;-122.308;2024-03-07T00:05:45;0.80;;;0.20;;
68985;SDS011;56035;37.534;-122.308;2024-03-07T00:08:12;1.67;;;0.60;;
68985;SDS011;56035;37.534;-122.308;2024-03-07T00:10:38;1.58;;;0.40;;
68985;SDS011;56035;37.534;-122.308;2024-03-07T00:13:09;0.93;;;0.40;;
68985;SDS011;56035;37.534;-122.308;2024-03-07T00:15:35;3.28;;;0.45;;
68985;SDS011;56035;37.534;-122.308;2024-03-07T00:18:02;1.38;;;0.50;;
68985;SDS011;56035;37.534;-122.308;2024-03-07T00:20:29;1.00;;;0.55;;
68985;SDS011;56035;37.534;-122.308;2024-03-07T00:22:55;0.90;;;0.40;;
68985;SDS011;56035;37.534;-122.308;2024-03-07T00:25:22;2.05;;;0.65;;
68985;SDS011;56035;37.534;-122.308;2024-03-07T00:27:48;1.33;;;0.40;;
68985;SDS011;56035;37.534;-122.308;2024-03-07T00:30:18;3.07;;;0.60;;
68985;SDS011;56035;37.534;-122.308;2024-03-07T00:35:12;2.95;;;0.60;;
68985;SDS011;56035;37.534;-122.308;2024-03-07T00:37:39;1.77;;;0.60;;
68985;SDS011;56035;37.534;-122.308;2024-03-07T00:40:06;11.70;;;6.53;;
68985;SDS011;56035;37.534;-122.308;2024-03-07T00:42:35;2.00;;;1.10;;
68985;SDS011;56035;37.534;-122.308;2024-03-07T00:45:02;0.90;;;0.50;;
68985;SDS011;56035;37.534;-122.308;2024-03-07T00:47:30;1.17;;;0.40;;
68985;SDS011;56035;37.534;-122.308;2024-03-07T00:50:00;1.70;;;0.70;;
68985;SDS011;56035;37.534;-122.308;2024-03-07T00:52:27;3.13;;;0.80;;
68985;SDS011;56035;37.534;-122.308;2024-03-07T00:54:54;3.80;;;1.33;;
68985;SDS011;56035;37.534;-122.308;2024-03-07T00:59:47;3.90;;;0.53;;
68985;SDS011;56035;37.534;-122.308;2024-03-07T01:02:15;4.73;;;0.60;;
68985;SDS011;56035;37.534;-122.308;2024-03-07T01:04:45;3.00;;;0.50;;
68985;SDS011;56035;37.534;-122.308;2024-03-07T01:07:12;2.30;;;0.53;;
68985;SDS011;56035;37.534;-122.308;2024-03-07T01:09:39;3.53;;;0.50;;
68985;SDS011;56035;37.534;-122.308;2024-03-07T01:12:07;4.33;;;0.60;;
68985;SDS011;56035;37.534;-122.308;2024-03-07T01:14:36;3.97;;;0.90;;
68985;SDS011;56035;37.534;-122.308;2024-03-07T01:17:06;4.43;;;0.60;;
68985;SDS011;56035;37.534;-122.308;2024-03-07T01:19:35;2.80;;;0.60;;
68985;SDS011;56035;37.534;-122.308;2024-03-07T01:22:08;5.43;;;0.50;;
68985;SDS011;56035;37.534;-122.308;2024-03-07T01:24:41;3.27;;;0.93;;
68985;SDS011;56035;37.534;-122.308;2024-03-07T01:27:12;6.03;;;1.20;;
68985;SDS011;56035;37.534;-122.308;2024-03-07T01:29:40;6.87;;;0.80;;
68985;SDS011;56035;37.534;-122.308;2024-03-07T01:32:08;5.07;;;1.03;;
68985;SDS011;56035;37.534;-122.308;2024-03-07T01:34:36;5.47;;;0.97;;
68985;SDS011;56035;37.534;-122.308;2024-03-07T01:37:09;5.73;;;1.60;;
68985;SDS011;56035;37.534;-122.308;2024-03-07T01:39:37;4.97;;;1.33;;
68985;SDS011;56035;37.534;-122.308;2024-03-07T01:42:05;5.30;;;0.93;;
68985;SDS011;56035;37.534;-122.308;2024-03-07T01:44:35;8.63;;;1.20;;
68985;SDS011;56035;37.534;-122.308;2024-03-07T01:47:09;7.13;;;1.43;;
68985;SDS011;56035;37.534;-122.308;2024-03-07T01:49:39;8.50;;;1.43;;
68985;SDS011;56035;37.534;-122.308;2024-03-07T01:52:06;9.30;;;1.60;;
68985;SDS011;56035;37.534;-122.308;2024-03-07T01:54:37;6.50;;;1.50;;
68985;SDS011;56035;37.534;-122.308;2024-03-07T01:57:13;5.67;;;1.77;;
68985;SDS011;56035;37.534;-122.308;2024-03-07T01:59:43;8.80;;;1.43;;
68985;SDS011;56035;37.534;-122.308;2024-03-07T02:02:11;6.13;;;0.90;;
68985;SDS011;56035;37.534;-122.308;2024-03-07T02:04:38;7.57;;;1.20;;
68985;SDS011;56035;37.534;-122.308;2024-03-07T02:07:06;7.27;;;1.10;;
68985;SDS011;56035;37.534;-122.308;2024-03-07T02:09:37;7.77;;;1.07;;
68985;SDS011;56035;37.534;-122.308;2024-03-07T02:12:09;8.60;;;1.60;;
68985;SDS011;56035;37.534;-122.308;2024-03-07T02:14:39;7.63;;;1.30;;
68985;SDS011;56035;37.534;-122.308;2024-03-07T02:17:07;9.20;;;1.43;;
68985;SDS011;56035;37.534;-122.308;2024-03-07T02:19:36;8.10;;;1.70;;
68985;SDS011;56035;37.534;-122.308;2024-03-07T02:22:05;5.63;;;1.23;;
68985;SDS011;56035;37.534;-122.308;2024-03-07T02:24:40;9.30;;;1.57;;
68985;SDS011;56035;37.534;-122.308;2024-03-07T02:27:07;10.83;;;1.57;;
68985;SDS011;56035;37.534;-122.308;2024-03-07T02:29:35;13.83;;;2.30;;
68985;SDS011;56035;37.534;-122.308;2024-03-07T02:32:02;10.53;;;2.23;;
68985;SDS011;56035;37.534;-122.308;2024-03-07T02:34:30;10.97;;;2.00;;
68985;SDS011;56035;37.534;-122.308;2024-03-07T02:37:00;11.87;;;1.97;;
68985;SDS011;56035;37.534;-122.308;2024-03-07T02:39:28;8.07;;;1.53;;
68985;SDS011;56035;37.534;-122.308;2024-03-07T02:41:57;8.50;;;1.63;;
68985;SDS011;56035;37.534;-122.308;2024-03-07T02:44:24;10.90;;;1.90;;
68985;SDS011;56035;37.534;-122.308;2024-03-07T02:46:52;9.80;;;2.03;;
68985;SDS011;56035;37.534;-122.308;2024-03-07T02:49:21;10.67;;;1.67;;
68985;SDS011;56035;37.534;-122.308;2024-03-07T02:51:49;9.07;;;1.33;;
68985;SDS011;56035;37.534;-122.308;2024-03-07T02:54:22;9.93;;;1.33;;
68985;SDS011;56035;37.534;-122.308;2024-03-07T02:56:49;9.05;;;2.10;;
68985;SDS011;56035;37.534;-122.308;2024-03-07T02:59:16;6.87;;;1.53;;
68985;SDS011;56035;37.534;-122.308;2024-03-07T03:01:47;13.20;;;2.13;;
68985;SDS011;56035;37.534;-122.308;2024-03-07T03:04:14;8.43;;;1.40;;
68985;SDS011;56035;37.534;-122.308;2024-03-07T03:06:45;10.23;;;1.27;;
68985;SDS011;56035;37.534;-122.308;2024-03-07T03:09:12;8.67;;;1.80;;
68985;SDS011;56035;37.534;-122.308;2024-03-07T03:11:45;10.67;;;2.10;;
68985;SDS011;56035;37.534;-122.308;2024-03-07T03:14:12;15.37;;;2.53;;
68985;SDS011;56035;37.534;-122.308;2024-03-07T03:16:43;13.77;;;2.17;;
68985;SDS011;56035;37.534;-122.308;2024-03-07T03:19:11;16.37;;;2.63;;
68985;SDS011;56035;37.534;-122.308;2024-03-07T03:21:38;13.43;;;1.57;;
68985;SDS011;56035;37.534;-122.308;2024-03-07T03:24:06;16.20;;;2.30;;
68985;SDS011;56035;37.534;-122.308;2024-03-07T03:26:36;11.90;;;2.40;;
68985;SDS011;56035;37.534;-122.308;2024-03-07T03:29:07;14.47;;;1.87;;
68985;SDS011;56035;37.534;-122.308;2024-03-07T03:31:39;12.50;;;2.93;;
68985;SDS011;56035;37.534;-122.308;2024-03-07T03:34:06;20.87;;;3.70;;
68985;SDS011;56035;37.534;-122.308;2024-03-07T03:36:35;20.93;;;4.23;;
68985;SDS011;56035;37.534;-122.308;2024-03-07T03:39:08;13.77;;;2.37;;
68985;SDS011;56035;37.534;-122.308;2024-03-07T03:41:41;16.53;;;3.03;;
68985;SDS011;56035;37.534;-122.308;2024-03-07T03:44:09;14.77;;;2.77;;
68985;SDS011;56035;37.534;-122.308;2024-03-07T03:46:37;20.93;;;3.13;;
68985;SDS011;56035;37.534;-122.308;2024-03-07T03:49:04;17.40;;;2.70;;
68985;SDS011;56035;37.534;-122.308;2024-03-07T03:51:33;13.93;;;2.43;;
68985;SDS011;56035;37.534;-122.308;2024-03-07T03:54:01;18.77;;;3.13;;
68985;SDS011;56035;37.534;-122.308;2024-03-07T03:58:57;19.93;;;2.60;;
68985;SDS011;56035;37.534;-122.308;2024-03-07T04:01:27;13.07;;;2.00;;
68985;SDS011;56035;37.534;-122.308;2024-03-07T04:03:55;15.60;;;2.33;;
68985;SDS011;56035;37.534;-122.308;2024-03-07T04:06:23;17.73;;;1.90;;
68985;SDS011;56035;37.534;-122.308;2024-03-07T04:08:52;16.57;;;2.50;;
68985;SDS011;56035;37.534;-122.308;2024-03-07T04:11:23;14.83;;;2.43;;
68985;SDS011;56035;37.534;-122.308;2024-03-07T04:13:50;15.43;;;3.33;;
68985;SDS011;56035;37.534;-122.308;2024-03-07T04:16:18;17.47;;;2.60;;
68985;SDS011;56035;37.534;-122.308;2024-03-07T04:18:46;19.08;;;3.33;;
68985;SDS011;56035;37.534;-122.308;2024-03-07T04:21:13;15.90;;;2.80;;
68985;SDS011;56035;37.534;-122.308;2024-03-07T04:23:40;15.63;;;2.65;;
68985;SDS011;56035;37.534;-122.308;2024-03-07T04:26:07;18.20;;;2.90;;
68985;SDS011;56035;37.534;-122.308;2024-03-07T04:28:34;20.45;;;3.58;;
68985;SDS011;56035;37.534;-122.308;2024-03-07T04:31:01;25.73;;;3.57;;
68985;SDS011;56035;37.534;-122.308;2024-03-07T04:33:28;16.47;;;3.10;;
68985;SDS011;56035;37.534;-122.308;2024-03-07T04:35:55;21.92;;;2.28;;
68985;SDS011;56035;37.534;-122.308;2024-03-07T04:38:22;21.23;;;2.37;;
68985;SDS011;56035;37.534;-122.308;2024-03-07T04:40:49;16.10;;;2.90;;
68985;SDS011;56035;37.534;-122.308;2024-03-07T04:45:42;10.97;;;2.67;;
68985;SDS011;56035;37.534;-122.308;2024-03-07T04:48:09;14.75;;;2.60;;
68985;SDS011;56035;37.534;-122.308;2024-03-07T04:53:02;13.97;;;2.47;;
68985;SDS011;56035;37.534;-122.308;2024-03-07T04:55:29;21.35;;;2.75;;
68985;SDS011;56035;37.534;-122.308;2024-03-07T04:57:55;15.40;;;2.47;;
68985;SDS011;56035;37.534;-122.308;2024-03-07T05:00:22;15.35;;;3.08;;
68985;SDS011;56035;37.534;-122.308;2024-03-07T05:02:49;17.60;;;3.03;;
68985;SDS011;56035;37.534;-122.308;2024-03-07T05:05:15;17.20;;;3.40;;
68985;SDS011;56035;37.534;-122.308;2024-03-07T05:07:52;14.23;;;1.83;;
68985;SDS011;56035;37.534;-122.308;2024-03-07T05:10:21;19.83;;;3.53;;
68985;SDS011;56035;37.534;-122.308;2024-03-07T05:12:47;12.98;;;2.22;;
68985;SDS011;56035;37.534;-122.308;2024-03-07T05:15:14;24.83;;;2.70;;
68985;SDS011;56035;37.534;-122.308;2024-03-07T05:17:40;20.65;;;2.30;;
68985;SDS011;56035;37.534;-122.308;2024-03-07T05:20:08;20.77;;;3.13;;
68985;SDS011;56035;37.534;-122.308;2024-03-07T05:22:38;15.97;;;2.40;;
68985;SDS011;56035;37.534;-122.308;2024-03-07T05:25:18;15.60;;;2.33;;
68985;SDS011;56035;37.534;-122.308;2024-03-07T05:27:47;14.17;;;2.37;;
68985;SDS011;56035;37.534;-122.308;2024-03-07T05:30:16;18.47;;;2.47;;
68985;SDS011;56035;37.534;-122.308;2024-03-07T05:32:43;20.33;;;2.88;;
68985;SDS011;56035;37.534;-122.308;2024-03-07T05:35:09;13.88;;;2.22;;
68985;SDS011;56035;37.534;-122.308;2024-03-07T05:40:02;15.27;;;2.30;;
68985;SDS011;56035;37.534;-122.308;2024-03-07T05:42:29;20.35;;;2.03;;
68985;SDS011;56035;37.534;-122.308;2024-03-07T05:44:57;16.83;;;2.20;;
68985;SDS011;56035;37.534;-122.308;2024-03-07T05:47:23;15.38;;;2.42;;
68985;SDS011;56035;37.534;-122.308;2024-03-07T05:49:49;17.27;;;2.38;;
68985;SDS011;56035;37.534;-122.308;2024-03-07T05:52:16;14.13;;;2.50;;
68985;SDS011;56035;37.534;-122.308;2024-03-07T05:54:42;17.88;;;2.53;;
68985;SDS011;56035;37.534;-122.308;2024-03-07T05:57:09;21.67;;;2.75;;
68985;SDS011;56035;37.534;-122.308;2024-03-07T05:59:36;18.93;;;2.40;;
68985;SDS011;56035;37.534;-122.308;2024-03-07T06:04:30;20.37;;;2.70;;
68985;SDS011;56035;37.534;-122.308;2024-03-07T06:06:57;13.73;;;2.10;;
68985;SDS011;56035;37.534;-122.308;2024-03-07T06:09:25;18.40;;;2.77;;
68985;SDS011;56035;37.534;-122.308;2024-03-07T06:11:52;13.45;;;2.85;;
68985;SDS011;56035;37.534;-122.308;2024-03-07T06:14:18;17.38;;;2.00;;
68985;SDS011;56035;37.534;-122.308;2024-03-07T06:16:45;18.80;;;2.55;;
68985;SDS011;56035;37.534;-122.308;2024-03-07T06:19:11;16.90;;;2.40;;
68985;SDS011;56035;37.534;-122.308;2024-03-07T06:21:39;11.02;;;2.65;;
68985;SDS011;56035;37.534;-122.308;2024-03-07T06:24:08;19.80;;;3.00;;
68985;SDS011;56035;37.534;-122.308;2024-03-07T06:26:37;18.47;;;3.17;;
68985;SDS011;56035;37.534;-122.308;2024-03-07T06:29:07;18.23;;;3.07;;
68985;SDS011;56035;37.534;-122.308;2024-03-07T06:31:36;20.50;;;3.30;;
68985;SDS011;56035;37.534;-122.308;2024-03-07T06:34:03;21.27;;;3.05;;
68985;SDS011;56035;37.534;-122.308;2024-03-07T06:36:29;20.77;;;3.17;;
68985;SDS011;56035;37.534;-122.308;2024-03-07T06:38:56;19.55;;;3.13;;
68985;SDS011;56035;37.534;-122.308;2024-03-07T06:41:22;16.73;;;2.92;;
68985;SDS011;56035;37.534;-122.308;2024-03-07T06:43:50;16.37;;;2.90;;
68985;SDS011;56035;37.534;-122.308;2024-03-07T06:46:18;25.53;;;3.30;;
68985;SDS011;56035;37.534;-122.308;2024-03-07T06:48:45;17.83;;;2.50;;
68985;SDS011;56035;37.534;-122.308;2024-03-07T06:51:12;17.98;;;2.80;;
68985;SDS011;56035;37.534;-122.308;2024-03-07T06:53:38;14.57;;;2.20;;
68985;SDS011;56035;37.534;-122.308;2024-03-07T06:56:05;21.67;;;3.15;;
68985;SDS011;56035;37.534;-122.308;2024-03-07T07:00:58;21.93;;;2.73;;
68985;SDS011;56035;37.534;-122.308;2024-03-07T07:03:44;17.43;;;2.57;;
68985;SDS011;56035;37.534;-122.308;2024-03-07T07:06:12;24.13;;;3.00;;
68985;SDS011;56035;37.534;-122.308;2024-03-07T07:08:39;15.50;;;2.53;;
68985;SDS011;56035;37.534;-122.308;2024-03-07T07:11:05;18.38;;;2.53;;
68985;SDS011;56035;37.534;-122.308;2024-03-07T07:13:32;20.17;;;2.53;;
68985;SDS011;56035;37.534;-122.308;2024-03-07T07:15:58;18.60;;;3.13;;
68985;SDS011;56035;37.534;-122.308;2024-03-07T07:18:25;14.45;;;2.17;;
68985;SDS011;56035;37.534;-122.308;2024-03-07T07:20:51;19.40;;;2.58;;
68985;SDS011;56035;37.534;-122.308;2024-03-07T07:23:18;18.48;;;2.58;;
68985;SDS011;56035;37.534;-122.308;2024-03-07T07:25:45;15.03;;;2.27;;
68985;SDS011;56035;37.534;-122.308;2024-03-07T07:28:11;19.08;;;2.50;;
68985;SDS011;56035;37.534;-122.308;2024-03-07T07:30:38;15.98;;;2.50;;
68985;SDS011;56035;37.534;-122.308;2024-03-07T07:33:05;20.33;;;2.80;;
68985;SDS011;56035;37.534;-122.308;2024-03-07T07:35:31;11.88;;;1.95;;
68985;SDS011;56035;37.534;-122.308;2024-03-07T07:38:00;16.73;;;2.67;;
68985;SDS011;56035;37.534;-122.308;2024-03-07T07:40:26;20.10;;;2.60;;
68985;SDS011;56035;37.534;-122.308;2024-03-07T07:45:20;21.00;;;2.63;;
68985;SDS011;56035;37.534;-122.308;2024-03-07T07:47:48;16.67;;;2.23;;
68985;SDS011;56035;37.534;-122.308;2024-03-07T07:50:19;14.73;;;2.63;;
68985;SDS011;56035;37.534;-122.308;2024-03-07T07:52:47;22.40;;;2.70;;
68985;SDS011;56035;37.534;-122.308;2024-03-07T07:55:19;25.77;;;2.43;;
68985;SDS011;56035;37.534;-122.308;2024-03-07T07:57:50;17.97;;;2.50;;
68985;SDS011;56035;37.534;-122.308;2024-03-07T08:00:22;19.57;;;2.93;;
68985;SDS011;56035;37.534;-122.308;2024-03-07T08:02:53;20.20;;;3.10;;
68985;SDS011;56035;37.534;-122.308;2024-03-07T08:05:21;20.50;;;2.47;;
68985;SDS011;56035;37.534;-122.308;2024-03-07T08:07:49;24.03;;;2.80;;
68985;SDS011;56035;37.534;-122.308;2024-03-07T08:10:17;16.93;;;2.90;;
68985;SDS011;56035;37.534;-122.308;2024-03-07T08:12:44;19.00;;;2.97;;
68985;SDS011;56035;37.534;-122.308;2024-03-07T08:15:11;30.65;;;3.90;;
68985;SDS011;56035;37.534;-122.308;2024-03-07T08:17:44;22.00;;;3.20;;
68985;SDS011;56035;37.534;-122.308;2024-03-07T08:20:18;20.63;;;3.40;;
68985;SDS011;56035;37.534;-122.308;2024-03-07T08:22:48;22.37;;;3.67;;
68985;SDS011;56035;37.534;-122.308;2024-03-07T08:25:19;22.43;;;3.23;;
68985;SDS011;56035;37.534;-122.308;2024-03-07T08:27:48;20.10;;;3.20;;
68985;SDS011;56035;37.534;-122.308;2024-03-07T08:30:15;22.20;;;3.37;;
68985;SDS011;56035;37.534;-122.308;2024-03-07T08:32:43;18.58;;;3.65;;
68985;SDS011;56035;37.534;-122.308;2024-03-07T08:35:19;23.00;;;2.53;;
68985;SDS011;56035;37.534;-122.308;2024-03-07T08:37:46;21.23;;;3.03;;
68985;SDS011;56035;37.534;-122.308;2024-03-07T08:40:21;31.10;;;4.90;;
68985;SDS011;56035;37.534;-122.308;2024-03-07T08:42:50;27.23;;;3.90;;
68985;SDS011;56035;37.534;-122.308;2024-03-07T08:45:19;26.37;;;4.17;;
68985;SDS011;56035;37.534;-122.308;2024-03-07T08:47:46;25.88;;;3.47;;
68985;SDS011;56035;37.534;-122.308;2024-03-07T08:50:14;21.33;;;3.60;;
68985;SDS011;56035;37.534;-122.308;2024-03-07T08:52:43;29.30;;;4.63;;
68985;SDS011;56035;37.534;-122.308;2024-03-07T08:55:12;36.57;;;5.07;;
68985;SDS011;56035;37.534;-122.308;2024-03-07T08:57:40;34.33;;;4.60;;
68985;SDS011;56035;37.534;-122.308;2024-03-07T09:00:07;30.07;;;4.77;;
68985;SDS011;56035;37.534;-122.308;2024-03-07T09:02:37;22.37;;;3.77;;
68985;SDS011;56035;37.534;-122.308;2024-03-07T09:05:04;32.40;;;5.23;;
68985;SDS011;56035;37.534;-122.308;2024-03-07T09:07:32;32.03;;;4.37;;
68985;SDS011;56035;37.534;-122.308;2024-03-07T09:09:58;26.05;;;4.82;;
68985;SDS011;56035;37.534;-122.308;2024-03-07T09:12:25;23.77;;;3.75;;
68985;SDS011;56035;37.534;-122.308;2024-03-07T09:14:52;27.88;;;4.65;;
68985;SDS011;56035;37.534;-122.308;2024-03-07T09:17:19;29.05;;;3.45;;
68985;SDS011;56035;37.534;-122.308;2024-03-07T09:19:46;27.93;;;3.63;;
68985;SDS011;56035;37.534;-122.308;2024-03-07T09:22:12;27.67;;;3.92;;
68985;SDS011;56035;37.534;-122.308;2024-03-07T09:24:39;23.73;;;4.28;;
68985;SDS011;56035;37.534;-122.308;2024-03-07T09:27:05;23.23;;;2.80;;
68985;SDS011;56035;37.534;-122.308;2024-03-07T09:29:33;18.57;;;3.30;;
68985;SDS011;56035;37.534;-122.308;2024-03-07T09:31:59;23.73;;;3.58;;
68985;SDS011;56035;37.534;-122.308;2024-03-07T09:34:27;21.77;;;3.13;;
68985;SDS011;56035;37.534;-122.308;2024-03-07T09:36:56;18.00;;;3.23;;
68985;SDS011;56035;37.534;-122.308;2024-03-07T09:39:24;31.00;;;4.00;;
68985;SDS011;56035;37.534;-122.308;2024-03-07T09:41:52;22.07;;;3.53;;
68985;SDS011;56035;37.534;-122.308;2024-03-07T09:44:20;24.70;;;3.83;;
68985;SDS011;56035;37.534;-122.308;2024-03-07T09:46:49;21.53;;;3.67;;
68985;SDS011;56035;37.534;-122.308;2024-03-07T09:49:16;28.70;;;4.03;;
68985;SDS011;56035;37.534;-122.308;2024-03-07T09:51:43;24.02;;;3.50;;
68985;SDS011;56035;37.534;-122.308;2024-03-07T09:54:10;34.30;;;4.10;;
68985;SDS011;56035;37.534;-122.308;2024-03-07T09:56:37;23.73;;;3.40;;
68985;SDS011;56035;37.534;-122.308;2024-03-07T10:01:33;26.43;;;4.10;;
68985;SDS011;56035;37.534;-122.308;2024-03-07T10:04:01;25.57;;;4.33;;
68985;SDS011;56035;37.534;-122.308;2024-03-07T10:06:42;27.20;;;3.77;;
68985;SDS011;56035;37.534;-122.308;2024-03-07T10:09:12;24.83;;;3.93;;
68985;SDS011;56035;37.534;-122.308;2024-03-07T10:14:11;25.60;;;3.03;;
68985;SDS011;56035;37.534;-122.308;2024-03-07T10:16:38;22.23;;;3.10;;
68985;SDS011;56035;37.534;-122.308;2024-03-07T10:19:06;18.27;;;3.10;;
68985;SDS011;56035;37.534;-122.308;2024-03-07T10:21:35;28.03;;;3.40;;
68985;SDS011;56035;37.534;-122.308;2024-03-07T10:26:39;20.57;;;3.10;;
68985;SDS011;56035;37.534;-122.308;2024-03-07T10:29:06;25.20;;;4.10;;
68985;SDS011;56035;37.534;-122.308;2024-03-07T10:31:35;21.53;;;3.30;;
68985;SDS011;56035;37.534;-122.308;2024-03-07T10:34:06;21.13;;;2.90;;
68985;SDS011;56035;37.534;-122.308;2024-03-07T10:36:33;24.45;;;3.85;;
68985;SDS011;56035;37.534;-122.308;2024-03-07T10:44:30;23.53;;;2.90;;
68985;SDS011;56035;37.534;-122.308;2024-03-07T10:46:57;24.90;;;4.03;;
68985;SDS011;56035;37.534;-122.308;2024-03-07T10:49:29;22.17;;;3.90;;
68985;SDS011;56035;37.534;-122.308;2024-03-07T10:52:03;23.43;;;3.20;;
68985;SDS011;56035;37.534;-122.308;2024-03-07T11:00:04;22.10;;;3.20;;
68985;SDS011;56035;37.534;-122.308;2024-03-07T11:02:49;20.33;;;2.90;;
68985;SDS011;56035;37.534;-122.308;2024-03-07T11:05:18;23.20;;;3.43;;
68985;SDS011;56035;37.534;-122.308;2024-03-07T11:07:52;19.60;;;3.43;;
68985;SDS011;56035;37.534;-122.308;2024-03-07T11:10:19;17.27;;;2.77;;
68985;SDS011;56035;37.534;-122.308;2024-03-07T11:12:46;22.83;;;3.25;;
68985;SDS011;56035;37.534;-122.308;2024-03-07T11:15:15;20.93;;;4.20;;
68985;SDS011;56035;37.534;-122.308;2024-03-07T11:17:45;19.20;;;3.63;;
68985;SDS011;56035;37.534;-122.308;2024-03-07T11:20:19;25.53;;;3.50;;
68985;SDS011;56035;37.534;-122.308;2024-03-07T11:22:46;27.20;;;3.47;;
68985;SDS011;56035;37.534;-122.308;2024-03-07T11:25:13;21.92;;;3.30;;
68985;SDS011;56035;37.534;-122.308;2024-03-07T11:27:39;19.63;;;2.70;;
68985;SDS011;56035;37.534;-122.308;2024-03-07T11:30:18;18.07;;;2.97;;
68985;SDS011;56035;37.534;-122.308;2024-03-07T11:32:46;13.47;;;2.57;;
68985;SDS011;56035;37.534;-122.308;2024-03-07T11:35:15;25.23;;;3.30;;
68985;SDS011;56035;37.534;-122.308;2024-03-07T11:37:56;18.00;;;3.13;;
68985;SDS011;56035;37.534;-122.308;2024-03-07T11:42:53;15.45;;;2.20;;
68985;SDS011;56035;37.534;-122.308;2024-03-07T11:45:40;18.17;;;2.43;;
68985;SDS011;56035;37.534;-122.308;2024-03-07T11:48:17;18.42;;;2.55;;
68985;SDS011;56035;37.534;-122.308;2024-03-07T11:50:45;14.50;;;2.77;;
68985;SDS011;56035;37.534;-122.308;2024-03-07T11:53:12;12.38;;;2.30;;
68985;SDS011;56035;37.534;-122.308;2024-03-07T11:55:39;22.90;;;3.05;;
68985;SDS011;56035;37.534;-122.308;2024-03-07T11:58:16;15.70;;;2.90;;
68985;SDS011;56035;37.534;-122.308;2024-03-07T12:00:46;13.43;;;2.20;;
68985;SDS011;56035;37.534;-122.308;2024-03-07T12:03:14;18.80;;;2.87;;
68985;SDS011;56035;37.534;-122.308;2024-03-07T12:05:50;19.73;;;2.93;;
68985;SDS011;56035;37.534;-122.308;2024-03-07T12:08:17;13.27;;;2.83;;
68985;SDS011;56035;37.534;-122.308;2024-03-07T12:10:47;13.30;;;2.73;;
68985;SDS011;56035;37.534;-122.308;2024-03-07T12:13:19;13.73;;;2.40;;
68985;SDS011;56035;37.534;-122.308;2024-03-07T12:18:12;14.67;;;2.63;;
68985;SDS011;56035;37.534;-122.308;2024-03-07T12:20:43;15.60;;;2.40;;
68985;SDS011;56035;37.534;-122.308;2024-03-07T12:23:19;11.93;;;2.13;;
68985;SDS011;56035;37.534;-122.308;2024-03-07T12:25:58;13.27;;;2.17;;
68985;SDS011;56035;37.534;-122.308;2024-03-07T12:28:28;19.97;;;3.13;;
68985;SDS011;56035;37.534;-122.308;2024-03-07T12:30:58;10.53;;;2.00;;
68985;SDS011;56035;37.534;-122.308;2024-03-07T12:33:28;13.07;;;2.47;;
68985;SDS011;56035;37.534;-122.308;2024-03-07T12:35:56;11.30;;;2.53;;
68985;SDS011;56035;37.534;-122.308;2024-03-07T12:38:31;19.90;;;2.90;;
68985;SDS011;56035;37.534;-122.308;2024-03-07T12:41:04;20.83;;;2.40;;
68985;SDS011;56035;37.534;-122.308;2024-03-07T12:43:39;16.00;;;2.53;;
68985;SDS011;56035;37.534;-122.308;2024-03-07T12:46:12;11.47;;;2.00;;
68985;SDS011;56035;37.534;-122.308;2024-03-07T12:48:40;16.93;;;2.50;;
68985;SDS011;56035;37.534;-122.308;2024-03-07T12:51:06;13.82;;;2.08;;
68985;SDS011;56035;37.534;-122.308;2024-03-07T12:53:34;14.97;;;2.47;;
68985;SDS011;56035;37.534;-122.308;2024-03-07T12:56:01;13.75;;;2.30;;
68985;SDS011;56035;37.534;-122.308;2024-03-07T12:58:28;7.97;;;2.10;;
68985;SDS011;56035;37.534;-122.308;2024-03-07T13:00:56;12.27;;;2.10;;
68985;SDS011;56035;37.534;-122.308;2024-03-07T13:03:26;9.70;;;1.73;;
68985;SDS011;56035;37.534;-122.308;2024-03-07T13:05:58;13.93;;;1.80;;
68985;SDS011;56035;37.534;-122.308;2024-03-07T13:08:30;10.13;;;1.93;;
68985;SDS011;56035;37.534;-122.308;2024-03-07T13:10:56;7.63;;;1.65;;
68985;SDS011;56035;37.534;-122.308;2024-03-07T13:13:24;14.17;;;1.77;;
68985;SDS011;56035;37.534;-122.308;2024-03-07T13:15:50;16.60;;;2.47;;
68985;SDS011;56035;37.534;-122.308;2024-03-07T13:18:20;13.20;;;2.63;;
68985;SDS011;56035;37.534;-122.308;2024-03-07T13:20:46;15.35;;;2.30;;
68985;SDS011;56035;37.534;-122.308;2024-03-07T13:23:13;16.02;;;2.33;;
68985;SDS011;56035;37.534;-122.308;2024-03-07T13:25:40;9.20;;;1.80;;
68985;SDS011;56035;37.534;-122.308;2024-03-07T13:30:49;11.53;;;2.00;;
68985;SDS011;56035;37.534;-122.308;2024-03-07T13:33:19;12.03;;;2.83;;
68985;SDS011;56035;37.534;-122.308;2024-03-07T13:35:46;13.52;;;2.00;;
68985;SDS011;56035;37.534;-122.308;2024-03-07T13:38:13;17.83;;;2.10;;
68985;SDS011;56035;37.534;-122.308;2024-03-07T13:40:40;13.60;;;3.20;;
68985;SDS011;56035;37.534;-122.308;2024-03-07T13:43:07;11.88;;;2.60;;
68985;SDS011;56035;37.534;-122.308;2024-03-07T13:45:34;13.13;;;2.55;;
68985;SDS011;56035;37.534;-122.308;2024-03-07T13:48:05;12.10;;;2.70;;
68985;SDS011;56035;37.534;-122.308;2024-03-07T13:50:33;16.77;;;2.53;;
68985;SDS011;56035;37.534;-122.308;2024-03-07T13:53:00;14.90;;;2.27;;
68985;SDS011;56035;37.534;-122.308;2024-03-07T14:01:17;10.67;;;2.40;;
68985;SDS011;56035;37.534;-122.308;2024-03-07T14:10:01;6.43;;;1.60;;
68985;SDS011;56035;37.534;-122.308;2024-03-07T14:21:16;12.83;;;1.93;;
68985;SDS011;56035;37.534;-122.308;2024-03-07T14:32:51;12.27;;;1.77;;
68985;SDS011;56035;37.534;-122.308;2024-03-07T14:35:24;9.60;;;1.40;;
68985;SDS011;56035;37.534;-122.308;2024-03-07T14:40:49;10.50;;;1.43;;
68985;SDS011;56035;37.534;-122.308;2024-03-07T14:43:17;7.30;;;1.90;;
68985;SDS011;56035;37.534;-122.308;2024-03-07T14:45:45;9.10;;;1.60;;
68985;SDS011;56035;37.534;-122.308;2024-03-07T14:48:12;12.68;;;2.03;;
68985;SDS011;56035;37.534;-122.308;2024-03-07T14:50:42;14.50;;;1.73;;
68985;SDS011;56035;37.534;-122.308;2024-03-07T14:53:13;7.73;;;1.50;;
68985;SDS011;56035;37.534;-122.308;2024-03-07T14:55:43;12.13;;;1.80;;
68985;SDS011;56035;37.534;-122.308;2024-03-07T14:58:09;9.43;;;2.28;;
68985;SDS011;56035;37.534;-122.308;2024-03-07T15:00:39;8.30;;;1.70;;
68985;SDS011;56035;37.534;-122.308;2024-03-07T15:03:07;12.53;;;2.23;;
68985;SDS011;56035;37.534;-122.308;2024-03-07T15:05:42;12.00;;;1.97;;
68985;SDS011;56035;37.534;-122.308;2024-03-07T15:08:12;10.10;;;2.00;;
68985;SDS011;56035;37.534;-122.308;2024-03-07T15:10:48;9.67;;;1.60;;
68985;SDS011;56035;37.534;-122.308;2024-03-07T15:13:29;10.23;;;1.50;;
68985;SDS011;56035;37.534;-122.308;2024-03-07T15:15:55;10.70;;;1.90;;
68985;SDS011;56035;37.534;-122.308;2024-03-07T15:18:23;11.67;;;2.20;;
68985;SDS011;56035;37.534;-122.308;2024-03-07T15:20:49;7.32;;;1.20;;
68985;SDS011;56035;37.534;-122.308;2024-03-07T15:23:16;6.07;;;1.33;;
68985;SDS011;56035;37.534;-122.308;2024-03-07T15:25:42;6.63;;;1.45;;
68985;SDS011;56035;37.534;-122.308;2024-03-07T15:28:09;7.50;;;1.35;;